Time;durP1;ratioP1;P1;durP2;ratioP2;P2;SDS_P1;SDS_P2;PMS_P1;PMS_P2;Temp;Humidity;BMP_temperature;BMP_pressure;BME280_temperature;BME280_humidity;BME280_pressure;Samples;Min_cycle;Max_cycle;Signal;HPM_P1;HPM_P2
2022/01/13 00:02:04;;;;;;;21.27;13.00;;;11.50;81.50;;;;;;5016233;28;20030;-65
2022/01/13 00:04:34;;;;;;;22.52;11.70;;;11.50;81.40;;;;;;5015807;28;20018;-66
2022/01/13 00:06:59;;;;;;;23.17;11.88;;;11.50;81.30;;;;;;5015735;28;20022;-66
2022/01/13 00:09:25;;;;;;;21.25;12.35;;;11.60;81.90;;;;;;5015745;28;20100;-66
2022/01/13 00:11:52;;;;;;;23.85;12.35;;;11.50;81.10;;;;;;5015908;28;20072;-67
2022/01/13 00:25:00;;;;;;;18.70;12.20;;;11.40;81.20;;;;;;5015374;28;20046;-68
2022/01/13 00:27:28;;;;;;;21.60;11.50;;;11.40;81.30;;;;;;5015532;28;20026;-67
2022/01/13 00:29:56;;;;;;;12.80;10.65;;;11.40;81.30;;;;;;5014211;28;20025;-68
2022/01/13 00:32:24;;;;;;;23.38;11.45;;;11.50;81.30;;;;;;5015390;28;20014;-67
2022/01/13 00:34:50;;;;;;;13.45;11.07;;;11.40;81.00;;;;;;5015449;28;20026;-67
2022/01/13 00:37:16;;;;;;;18.95;10.88;;;11.40;80.70;;;;;;5015149;28;20018;-67
2022/01/13 00:39:41;;;;;;;14.70;10.98;;;11.30;80.50;;;;;;5015265;28;20482;-66
2022/01/13 00:42:08;;;;;;;17.88;10.68;;;11.30;80.80;;;;;;5015335;28;20029;-67
2022/01/13 00:44:37;;;;;;;19.58;10.23;;;11.30;80.80;;;;;;5015023;28;20029;-67
2022/01/13 00:47:07;;;;;;;13.27;11.00;;;11.30;80.70;;;;;;5014825;28;20123;-68
2022/01/13 00:49:32;;;;;;;18.55;11.45;;;11.20;80.70;;;;;;5014894;28;20029;-66
2022/01/13 00:51:58;;;;;;;14.75;10.85;;;11.20;80.90;;;;;;5013324;28;20096;-67
2022/01/13 00:54:25;;;;;;;17.60;11.50;;;11.20;80.80;;;;;;5014790;28;20054;-67
2022/01/13 00:56:51;;;;;;;14.60;10.13;;;11.20;80.60;;;;;;5015161;28;20045;-66
2022/01/13 00:59:17;;;;;;;10.85;9.63;;;11.20;80.50;;;;;;5015015;28;20030;-67
2022/01/13 01:01:46;;;;;;;15.07;10.43;;;11.10;80.70;;;;;;5014910;28;20022;-67
2022/01/13 01:04:12;;;;;;;15.48;10.88;;;11.20;81.00;;;;;;5014583;28;20032;-67
2022/01/13 01:06:38;;;;;;;30.50;11.32;;;11.10;80.90;;;;;;5014666;28;20114;-66
2022/01/13 01:09:04;;;;;;;21.70;10.32;;;11.10;81.00;;;;;;5014754;28;20096;-66
2022/01/13 01:11:30;;;;;;;23.35;11.60;;;11.20;80.90;;;;;;5014449;28;20026;-67
2022/01/13 01:13:57;;;;;;;26.88;11.00;;;11.20;80.80;;;;;;5014691;28;20030;-67
2022/01/13 01:16:25;;;;;;;18.20;11.45;;;11.10;80.60;;;;;;5014613;28;20018;-66
2022/01/13 01:19:01;;;;;;;19.30;11.73;;;11.00;80.80;;;;;;5014343;28;20068;-67
2022/01/13 01:24:15;;;;;;;24.25;12.50;;;11.00;80.90;;;;;;5013605;28;20471;-67
2022/01/13 01:26:46;;;;;;;18.20;14.00;;;11.00;81.30;;;;;;5014326;28;20533;-66
2022/01/13 01:31:46;;;;;;;22.55;13.77;;;11.00;81.70;;;;;;5014287;28;20029;-66
2022/01/13 01:36:38;;;;;;;20.52;13.38;;;11.00;81.60;;;;;;5014477;28;20083;-67
2022/01/13 01:39:06;;;;;;;20.17;14.13;;;10.90;81.60;;;;;;5014140;28;20514;-67
2022/01/13 01:41:35;;;;;;;18.67;12.52;;;10.90;81.80;;;;;;5013913;28;20395;-66
2022/01/13 01:44:09;;;;;;;19.23;12.35;;;10.90;81.80;;;;;;5014181;28;20026;-66
2022/01/13 01:46:35;;;;;;;16.77;12.07;;;10.90;81.50;;;;;;5012762;28;20096;-66
2022/01/13 01:49:07;;;;;;;13.98;11.73;;;10.90;81.70;;;;;;5013903;28;20026;-66
2022/01/13 01:51:33;;;;;;;;;;;10.90;81.60;;;;;;5014315;28;20157;-66
2022/01/13 01:53:59;;;;;;;17.75;10.73;;;11.00;82.30;;;;;;5012796;28;19956;-65
2022/01/13 01:56:24;;;;;;;26.70;11.60;;;10.90;81.50;;;;;;5013779;28;20080;-65
2022/01/13 01:58:50;;;;;;;16.48;11.30;;;10.90;81.50;;;;;;5013003;28;20065;-66
2022/01/13 02:01:16;;;;;;;15.55;11.90;;;10.90;81.20;;;;;;5013897;28;20029;-67
2022/01/13 02:03:42;;;;;;;15.52;10.85;;;10.90;81.30;;;;;;5013426;28;20105;-68
2022/01/13 02:06:07;;;;;;;15.25;11.88;;;10.90;81.60;;;;;;5013576;28;20542;-67
2022/01/13 02:08:33;;;;;;;16.30;11.88;;;10.80;81.60;;;;;;5013616;28;20067;-67
2022/01/13 02:10:59;;;;;;;26.02;11.70;;;10.80;81.80;;;;;;5013628;28;20090;-67
2022/01/13 02:13:33;;;;;;;26.35;11.15;;;10.80;81.90;;;;;;5013653;28;20032;-66
2022/01/13 02:16:05;;;;;;;20.15;11.43;;;10.80;81.70;;;;;;5012421;28;20037;-66
2022/01/13 02:18:32;;;;;;;22.08;10.77;;;10.80;81.50;;;;;;5013329;28;20057;-68
2022/01/13 02:21:00;;;;;;;19.27;11.68;;;10.80;82.00;;;;;;5012224;28;20364;-66
2022/01/13 02:23:30;;;;;;;18.65;11.20;;;10.80;81.80;;;;;;5013296;28;20033;-67
2022/01/13 02:25:55;;;;;;;17.50;11.35;;;10.90;81.40;;;;;;5013465;28;20034;-64
2022/01/13 02:28:21;;;;;;;18.95;11.05;;;10.80;81.40;;;;;;5013782;28;20041;-65
2022/01/13 02:30:47;;;;;;;22.15;10.98;;;10.80;81.50;;;;;;5012230;28;20388;-68
2022/01/13 02:33:12;;;;;;;21.25;11.88;;;10.80;81.60;;;;;;5012961;28;20479;-65
2022/01/13 02:35:38;;;;;;;27.52;11.55;;;10.70;81.60;;;;;;5013562;28;20101;-65
2022/01/13 02:38:11;;;;;;;16.33;12.25;;;10.70;81.80;;;;;;5013227;28;20034;-66
2022/01/13 02:40:37;;;;;;;20.40;12.80;;;10.60;81.80;;;;;;5013394;28;20022;-66
2022/01/13 02:43:06;;;;;;;25.40;12.25;;;10.60;82.10;;;;;;5013139;28;20054;-67
2022/01/13 02:45:38;;;;;;;23.42;12.85;;;10.50;82.30;;;;;;5013395;28;20025;-66
2022/01/13 02:50:39;;;;;;;24.67;13.80;;;10.50;82.60;;;;;;5013179;28;20096;-66
2022/01/13 02:53:06;;;;;;;24.00;12.80;;;10.40;82.70;;;;;;5012131;28;20106;-65
2022/01/13 02:55:32;;;;;;;23.23;13.65;;;10.40;82.80;;;;;;5013317;28;20100;-66
2022/01/13 02:57:57;;;;;;;17.67;12.85;;;10.40;82.70;;;;;;5013170;28;20121;-66
2022/01/13 03:00:23;;;;;;;26.10;13.50;;;10.40;82.80;;;;;;5013028;28;20033;-66
2022/01/13 03:02:49;;;;;;;23.23;14.25;;;10.40;82.80;;;;;;5013239;28;20055;-66
2022/01/13 03:05:15;;;;;;;23.52;13.75;;;10.50;82.70;;;;;;5013000;28;20067;-65
2022/01/13 03:07:41;;;;;;;24.92;12.70;;;10.40;82.90;;;;;;5013072;28;20084;-66
2022/01/13 03:10:09;;;;;;;17.48;13.52;;;10.40;83.10;;;;;;5016175;28;20054;-66
2022/01/13 03:12:38;;;;;;;21.20;12.98;;;10.40;82.90;;;;;;5016766;28;20022;-66
2022/01/13 03:15:04;;;;;;;24.83;13.50;;;10.30;82.90;;;;;;5016641;28;20037;-66
2022/01/13 03:17:30;;;;;;;21.30;13.13;;;10.40;83.00;;;;;;5015427;28;20045;-66
2022/01/13 03:19:55;;;;;;;20.20;12.70;;;10.40;82.80;;;;;;5016816;28;20026;-65
2022/01/13 03:22:21;;;;;;;26.25;13.98;;;10.40;82.60;;;;;;5015477;28;20042;-66
2022/01/13 03:24:47;;;;;;;30.00;13.77;;;10.40;82.70;;;;;;5016673;28;20105;-65
2022/01/13 03:27:19;;;;;;;24.73;13.32;;;10.40;82.60;;;;;;5016911;28;20025;-66
2022/01/13 03:29:45;;;;;;;;;;;10.30;82.80;;;;;;5016671;28;20026;-65
2022/01/13 03:32:10;;;;;;;18.58;12.30;;;10.40;82.70;;;;;;5015513;28;20294;-65
2022/01/13 03:34:36;;;;;;;21.38;12.95;;;10.40;82.60;;;;;;5016511;28;20068;-66
2022/01/13 03:37:02;;;;;;;19.90;12.85;;;10.40;82.80;;;;;;5016521;28;20025;-66
2022/01/13 03:39:28;;;;;;;17.90;12.43;;;10.30;82.70;;;;;;5016103;28;20026;-66
2022/01/13 03:41:54;;;;;;;20.98;12.73;;;10.40;82.50;;;;;;5016434;28;20014;-66
2022/01/13 03:44:28;;;;;;;15.88;12.75;;;10.30;82.70;;;;;;5016125;28;20113;-67
2022/01/13 03:46:56;;;;;;;21.73;13.00;;;10.30;82.90;;;;;;5016245;28;20475;-67
2022/01/13 03:49:21;;;;;;;22.90;12.95;;;10.30;83.00;;;;;;5016074;28;20022;-66
2022/01/13 03:51:50;;;;;;;17.92;13.45;;;10.40;82.90;;;;;;5016466;28;20030;-67
2022/01/13 03:54:34;;;;;;;19.33;14.48;;;10.30;82.60;;;;;;5016156;28;20037;-66
2022/01/13 03:57:34;;;;;;;23.10;13.68;;;10.30;82.90;;;;;;5016158;28;20054;-67
2022/01/13 04:00:18;;;;;;;21.30;13.68;;;10.30;82.80;;;;;;5015560;28;20042;-65
2022/01/13 04:02:45;;;;;;;19.08;13.25;;;10.30;83.40;;;;;;5016165;28;20026;-67
2022/01/13 04:05:10;;;;;;;23.20;13.68;;;10.30;83.10;;;;;;5015771;28;20025;-66
2022/01/13 04:07:36;;;;;;;28.80;12.50;;;10.20;83.40;;;;;;5015822;28;20022;-67
2022/01/13 04:10:04;;;;;;;31.95;14.48;;;10.20;83.10;;;;;;5015661;28;20022;-68
2022/01/13 04:12:29;;;;;;;20.90;12.77;;;10.20;83.10;;;;;;5015904;28;20076;-67
2022/01/13 04:14:59;;;;;;;30.60;13.05;;;10.20;82.30;;;;;;5009721;28;20034;-68
2022/01/13 04:17:26;;;;;;;21.38;12.20;;;10.30;81.70;;;;;;4992236;28;20031;-66
2022/01/13 04:19:52;;;;;;;43.72;13.50;;;10.20;82.00;;;;;;4993927;28;20026;-67
2022/01/13 04:22:19;;;;;;;51.92;13.43;;;10.20;82.00;;;;;;4992893;28;20038;-67
2022/01/13 04:24:50;;;;;;;32.55;12.75;;;10.20;81.70;;;;;;4977621;28;20026;-66
2022/01/13 04:27:24;;;;;;;35.40;13.63;;;10.20;81.80;;;;;;4995882;28;20102;-67
2022/01/13 04:30:11;;;;;;;21.92;13.38;;;10.10;81.90;;;;;;4995737;28;20033;-67
2022/01/13 04:32:36;;;;;;;34.72;13.90;;;10.10;82.00;;;;;;4995917;28;20128;-67
2022/01/13 04:35:01;;;;;;;23.52;12.95;;;10.10;82.10;;;;;;4995753;28;20492;-68
2022/01/13 04:37:27;;;;;;;27.52;12.70;;;10.10;82.20;;;;;;4995959;28;20026;-67
2022/01/13 04:39:52;;;;;;;31.33;14.02;;;10.10;82.30;;;;;;4994378;28;20030;-67
2022/01/13 04:42:18;;;;;;;27.08;13.32;;;10.00;82.50;;;;;;4995864;28;20049;-68
2022/01/13 04:44:44;;;;;;;27.05;12.63;;;10.00;82.60;;;;;;4995718;28;20018;-67
2022/01/13 04:47:09;;;;;;;25.40;13.00;;;10.00;82.60;;;;;;4995938;28;20384;-67
2022/01/13 04:49:35;;;;;;;23.33;12.68;;;10.00;82.70;;;;;;4995426;28;20105;-68
2022/01/13 04:52:00;;;;;;;28.52;13.25;;;10.00;82.50;;;;;;4995469;28;20043;-67
2022/01/13 04:54:26;;;;;;;27.10;12.10;;;9.90;82.60;;;;;;4995694;28;20026;-67
2022/01/13 04:59:17;;;;;;;28.08;13.38;;;9.90;82.80;;;;;;4995525;28;20069;-67
2022/01/13 05:01:43;;;;;;;26.67;13.73;;;9.90;83.00;;;;;;4992964;28;20109;-67
2022/01/13 05:04:09;;;;;;;32.03;14.95;;;9.90;83.10;;;;;;4995340;28;20049;-67
2022/01/13 05:06:36;;;;;;;52.45;13.90;;;9.80;83.50;;;;;;4995189;28;20054;-67
2022/01/13 05:09:03;;;;;;;37.60;14.27;;;9.90;83.30;;;;;;4995298;28;20033;-67
2022/01/13 05:11:28;;;;;;;39.08;13.15;;;9.90;83.00;;;;;;4995075;28;20419;-68
2022/01/13 05:13:54;;;;;;;22.40;14.15;;;9.90;82.90;;;;;;4995107;28;20105;-68
2022/01/13 05:16:29;;;;;;;27.60;13.60;;;9.90;83.00;;;;;;4995072;28;20464;-67
2022/01/13 05:24:14;;;;;;;27.25;14.30;;;9.80;83.40;;;;;;4995215;28;20041;-68
2022/01/13 05:26:40;;;;;;;29.38;14.20;;;9.80;83.40;;;;;;4994719;28;20097;-68
2022/01/13 05:29:06;;;;;;;36.15;13.68;;;9.80;83.50;;;;;;4994859;28;20396;-67
2022/01/13 05:31:31;;;;;;;36.10;13.65;;;9.80;83.40;;;;;;4994876;28;20513;-68
2022/01/13 05:33:57;;;;;;;58.25;13.75;;;9.80;83.10;;;;;;4994792;28;20527;-68
2022/01/13 05:36:23;;;;;;;29.40;13.43;;;9.80;82.90;;;;;;4994533;28;20027;-68
2022/01/13 05:38:50;;;;;;;34.92;13.27;;;9.80;82.60;;;;;;4994712;28;20545;-68
2022/01/13 05:41:16;;;;;;;31.58;13.25;;;9.70;83.10;;;;;;4991286;28;20022;-68
2022/01/13 05:43:42;;;;;;;30.40;12.93;;;9.70;83.10;;;;;;5000670;28;20041;-67
2022/01/13 05:46:07;;;;;;;33.15;13.13;;;9.70;83.00;;;;;;5014412;28;20014;-66
2022/01/13 05:48:33;;;;;;;24.80;12.40;;;9.70;83.40;;;;;;4995200;28;20022;-66
2022/01/13 05:50:59;;;;;;;41.33;13.48;;;9.70;83.20;;;;;;4990887;28;20030;-67
2022/01/13 05:53:25;;;;;;;25.77;12.48;;;9.70;83.20;;;;;;4993683;28;20062;-68
2022/01/13 05:55:52;;;;;;;27.25;12.60;;;9.70;83.00;;;;;;4993915;28;20026;-67
2022/01/13 05:58:18;;;;;;;20.20;13.75;;;9.70;83.10;;;;;;4992670;28;20491;-68
2022/01/13 06:00:44;;;;;;;22.25;13.13;;;9.70;83.40;;;;;;4990970;28;20026;-67
2022/01/13 06:03:10;;;;;;;24.80;13.75;;;9.70;83.30;;;;;;4986126;28;20550;-67
2022/01/13 06:05:36;;;;;;;23.95;13.38;;;9.60;83.50;;;;;;4974566;28;20019;-67
2022/01/13 06:08:03;;;;;;;21.83;12.82;;;9.60;83.50;;;;;;4974070;28;20518;-68
2022/01/13 06:13:04;;;;;;;30.45;13.13;;;9.60;83.50;;;;;;5031669;28;20481;-62
2022/01/13 06:15:32;;;;;;;20.58;11.10;;;9.60;83.40;;;;;;5033368;28;20018;-61
2022/01/13 06:17:57;;;;;;;28.88;12.45;;;9.60;83.50;;;;;;5032661;28;20040;-65
2022/01/13 06:20:23;;;;;;;24.92;11.75;;;9.60;83.40;;;;;;5033305;28;20030;-63
2022/01/13 06:22:51;;;;;;;25.67;12.45;;;9.60;83.20;;;;;;5033247;28;20109;-61
2022/01/13 06:25:17;;;;;;;31.45;11.65;;;9.60;83.10;;;;;;5032950;28;20560;-61
2022/01/13 06:27:43;;;;;;;31.45;12.25;;;9.60;83.10;;;;;;5033225;28;20022;-63
2022/01/13 06:30:14;;;;;;;22.35;12.43;;;9.60;83.00;;;;;;5033394;28;20029;-66
2022/01/13 06:32:40;;;;;;;22.33;12.20;;;9.70;82.80;;;;;;5033047;28;20482;-64
2022/01/13 06:35:06;;;;;;;38.08;11.57;;;9.60;82.80;;;;;;5033147;28;20030;-62
2022/01/13 06:37:32;;;;;;;28.33;12.07;;;9.60;83.10;;;;;;5032522;28;20017;-65
2022/01/13 06:39:57;;;;;;;25.90;12.40;;;9.60;83.10;;;;;;5031507;28;20026;-58
2022/01/13 06:42:23;;;;;;;35.00;12.18;;;9.50;83.00;;;;;;5026437;28;20560;-66
2022/01/13 06:44:49;;;;;;;46.47;15.35;;;9.50;83.20;;;;;;5026959;28;20025;-67
2022/01/13 06:47:14;;;;;;;43.58;13.65;;;9.60;83.20;;;;;;5029851;28;20057;-66
2022/01/13 06:49:40;;;;;;;28.65;13.18;;;9.60;82.80;;;;;;5027112;28;20470;-66
2022/01/13 06:52:06;;;;;;;28.20;12.52;;;9.60;82.70;;;;;;5024987;28;20099;-64
2022/01/13 06:54:32;;;;;;;24.02;12.70;;;9.70;83.50;;;;;;5019990;28;20018;-69
2022/01/13 06:56:58;;;;;;;22.73;13.07;;;9.70;82.80;;;;;;5020595;28;20041;-67
2022/01/13 06:59:23;;;;;;;18.20;14.57;;;9.60;82.80;;;;;;5020210;28;20029;-69
2022/01/13 07:01:49;;;;;;;27.08;13.43;;;9.70;82.60;;;;;;5020565;28;20026;-68
2022/01/13 07:04:15;;;;;;;20.58;13.60;;;9.60;82.60;;;;;;5020807;28;20068;-60
2022/01/13 07:06:43;;;;;;;36.40;14.35;;;9.60;82.30;;;;;;5028674;28;20018;-63
2022/01/13 07:09:14;;;;;;;12.65;9.15;;;9.60;82.30;;;;;;5019451;28;20117;-67
2022/01/13 07:11:41;;;;;;;33.22;14.07;;;9.80;84.40;;;;;;5018821;28;20037;-60
2022/01/13 07:14:07;;;;;;;55.28;15.20;;;9.80;83.10;;;;;;5052421;28;20021;-70
2022/01/13 07:16:33;;;;;;;22.08;14.68;;;9.80;82.20;;;;;;5020701;28;20024;-68
2022/01/13 07:18:59;;;;;;;18.50;13.77;;;9.70;81.80;;;;;;5015594;28;20037;-65
2022/01/13 07:21:27;;;;;;;37.03;14.15;;;9.60;81.50;;;;;;5029276;28;20391;-67
2022/01/13 07:23:53;;;;;;;33.35;15.20;;;9.60;81.60;;;;;;5029660;28;20041;-65
2022/01/13 07:26:19;;;;;;;27.75;12.88;;;9.50;81.90;;;;;;5019951;28;20021;-61
2022/01/13 07:28:44;;;;;;;31.67;14.00;;;9.60;82.30;;;;;;5032683;28;20096;-67
2022/01/13 07:31:10;;;;;;;37.67;13.80;;;9.60;82.30;;;;;;5015175;28;20378;-72
2022/01/13 07:33:35;;;;;;;43.55;14.68;;;9.60;82.00;;;;;;5017246;28;20029;-74
2022/01/13 07:36:01;;;;;;;33.45;13.95;;;9.50;82.10;;;;;;5012884;28;20371;-68
2022/01/13 07:38:26;;;;;;;20.67;13.98;;;9.50;81.50;;;;;;5012954;28;20459;-71
2022/01/13 07:40:52;;;;;;;31.75;15.43;;;9.40;81.80;;;;;;5013079;28;20030;-74
2022/01/13 07:43:22;;;;;;;23.35;14.65;;;9.40;81.80;;;;;;5026796;28;20490;-73
2022/01/13 07:45:49;;;;;;;24.20;14.75;;;9.40;82.80;;;;;;5032495;28;20032;-74
2022/01/13 07:48:15;;;;;;;22.88;14.00;;;9.30;83.60;;;;;;5032437;28;20025;-73
2022/01/13 07:50:41;;;;;;;19.50;13.57;;;9.40;83.20;;;;;;5017264;28;20084;-73
2022/01/13 07:53:07;;;;;;;24.85;14.20;;;9.40;82.80;;;;;;5019412;28;20368;-68
2022/01/13 07:55:32;;;;;;;32.22;13.32;;;9.40;82.50;;;;;;5032516;28;20491;-69
2022/01/13 07:57:58;;;;;;;41.22;21.02;;;9.40;83.30;;;;;;5025768;28;20057;-63
2022/01/13 08:00:24;;;;;;;27.33;15.02;;;9.30;82.60;;;;;;5015857;28;20463;-73
2022/01/13 08:02:49;;;;;;;25.05;14.10;;;9.30;82.90;;;;;;5022990;28;20065;-71
2022/01/13 08:05:15;;;;;;;24.60;14.95;;;9.30;83.10;;;;;;5023795;28;20104;-60
2022/01/13 08:07:40;;;;;;;18.30;14.32;;;9.30;82.90;;;;;;5029114;28;20033;-60
2022/01/13 08:10:06;;;;;;;30.08;13.65;;;9.30;83.20;;;;;;5035374;28;20064;-69
2022/01/13 08:12:32;;;;;;;23.83;13.70;;;9.40;83.50;;;;;;5012975;28;20102;-72
2022/01/13 08:14:58;;;;;;;26.17;14.63;;;9.50;83.70;;;;;;5019518;28;20357;-73
2022/01/13 08:20:08;;;;;;;19.08;12.07;;;9.30;82.70;;;;;;5031753;28;20602;-72
2022/01/13 08:22:34;;;;;;;27.88;12.07;;;9.60;83.50;;;;;;5023571;28;20072;-60
2022/01/13 08:25:00;;;;;;;27.75;14.05;;;9.70;83.10;;;;;;5016090;28;20037;-60
2022/01/13 08:27:25;;;;;;;31.48;14.50;;;9.70;82.30;;;;;;5024248;28;20026;-59
2022/01/13 08:29:51;;;;;;;26.70;14.05;;;9.70;82.10;;;;;;5026611;28;20100;-61
2022/01/13 08:32:18;;;;;;;36.63;14.20;;;9.60;81.80;;;;;;5035053;28;20025;-60
2022/01/13 08:34:44;;;;;;;21.88;13.20;;;9.50;81.70;;;;;;5033201;28;20026;-61
2022/01/13 08:37:10;;;;;;;22.58;13.88;;;9.50;82.60;;;;;;5034841;28;20033;-60
2022/01/13 08:39:42;;;;;;;16.35;12.70;;;9.60;82.70;;;;;;5034888;28;20044;-60
2022/01/13 08:42:08;;;;;;;;;;;9.70;83.00;;;;;;5032950;28;20520;-60
2022/01/13 08:44:33;;;;;;;36.63;14.90;;;9.70;81.80;;;;;;5015241;28;19914;-60
2022/01/13 08:46:59;;;;;;;27.58;15.38;;;9.60;81.50;;;;;;5015113;28;20430;-61
2022/01/13 08:49:24;;;;;;;31.65;15.95;;;9.50;82.10;;;;;;5014797;28;20109;-59
2022/01/13 08:51:51;;;;;;;41.63;16.42;;;9.60;82.80;;;;;;5021494;28;20414;-60
2022/01/13 08:54:20;;;;;;;30.90;16.45;;;9.50;82.40;;;;;;5034589;28;20032;-59
2022/01/13 08:56:46;;;;;;;28.35;15.05;;;9.50;82.60;;;;;;5034752;28;20462;-59
2022/01/13 08:59:12;;;;;;;24.02;15.68;;;9.50;82.50;;;;;;5034307;28;20309;-60
2022/01/13 09:01:37;;;;;;;25.52;16.13;;;9.40;82.20;;;;;;5032217;28;20040;-60
2022/01/13 09:04:03;;;;;;;21.75;15.32;;;9.30;82.20;;;;;;5016031;28;20371;-59
2022/01/13 09:06:29;;;;;;;23.20;15.27;;;9.30;82.50;;;;;;5031955;28;20455;-59
2022/01/13 09:08:54;;;;;;;25.58;15.43;;;9.30;82.80;;;;;;5028957;28;20180;-60
2022/01/13 09:11:20;;;;;;;22.40;14.77;;;9.30;82.50;;;;;;5034266;28;20538;-59
2022/01/13 09:13:45;;;;;;;21.58;15.13;;;9.30;82.70;;;;;;5034263;28;20396;-59
2022/01/13 09:16:16;;;;;;;23.27;16.20;;;9.20;83.30;;;;;;5034242;28;20026;-59
2022/01/13 09:21:23;;;;;;;27.30;15.52;;;9.20;83.20;;;;;;5029727;28;20033;-60
2022/01/13 09:23:48;;;;;;;21.02;14.15;;;9.20;83.40;;;;;;5034066;28;20025;-60
2022/01/13 09:26:14;;;;;;;27.58;16.88;;;9.10;83.20;;;;;;5034186;28;20032;-60
2022/01/13 09:28:40;;;;;;;20.00;14.30;;;9.10;83.70;;;;;;5034018;28;20025;-61
2022/01/13 09:31:06;;;;;;;23.58;15.25;;;9.10;83.30;;;;;;5034128;28;20509;-58
2022/01/13 09:33:33;;;;;;;28.00;16.55;;;9.10;83.50;;;;;;5033873;28;20537;-59
2022/01/13 09:35:59;;;;;;;23.65;15.63;;;9.10;83.70;;;;;;5033922;28;20026;-59
2022/01/13 09:38:24;;;;;;;29.55;15.70;;;9.10;83.80;;;;;;5033819;28;20033;-66
2022/01/13 09:40:54;;;;;;;26.48;15.93;;;9.00;83.90;;;;;;5018407;28;20030;-58
2022/01/13 09:43:25;;;;;;;23.67;16.25;;;9.10;83.80;;;;;;5013772;28;20080;-59
2022/01/13 09:45:53;;;;;;;24.58;16.13;;;9.10;84.20;;;;;;5014097;28;20018;-59
2022/01/13 09:48:19;;;;;;;25.45;15.70;;;9.10;84.40;;;;;;5013652;28;20026;-62
2022/01/13 09:50:46;;;;;;;23.50;16.10;;;9.10;84.50;;;;;;5013958;28;20033;-59
2022/01/13 09:53:12;;;;;;;29.10;14.35;;;9.10;84.60;;;;;;5014011;28;20021;-70
2022/01/13 09:55:39;;;;;;;24.52;15.57;;;9.00;84.70;;;;;;5013591;28;20022;-60
2022/01/13 09:58:10;;;;;;;33.90;15.55;;;9.20;84.80;;;;;;5013901;28;20030;-70
2022/01/13 10:00:38;;;;;;;27.23;16.15;;;9.20;84.90;;;;;;5013971;28;20033;-63
2022/01/13 10:03:16;;;;;;;28.30;16.10;;;9.20;84.60;;;;;;5027787;28;20029;-59
2022/01/13 10:05:54;;;;;;;29.88;16.90;;;9.20;84.80;;;;;;5033288;28;20022;-63
2022/01/13 10:08:22;;;;;;;34.78;15.55;;;9.20;85.00;;;;;;5027846;28;20056;-60
2022/01/13 10:10:48;;;;;;;27.58;16.63;;;9.30;85.10;;;;;;5033261;28;20044;-61
2022/01/13 10:13:23;;;;;;;33.22;15.80;;;9.30;84.80;;;;;;5033171;28;20033;-70
2022/01/13 10:18:42;;;;;;;27.65;14.77;;;9.30;85.00;;;;;;5032364;28;20044;-64
2022/01/13 10:21:13;;;;;;;36.85;17.02;;;9.40;85.70;;;;;;5033303;28;20017;-67
2022/01/13 10:24:06;;;;;;;36.53;17.88;;;9.50;85.60;;;;;;5033273;28;20390;-60
2022/01/13 10:26:34;;;;;;;28.10;18.65;;;9.60;85.70;;;;;;5033056;28;20107;-65
2022/01/13 10:29:00;;;;;;;28.25;17.35;;;9.60;84.80;;;;;;5032658;28;20025;-60
2022/01/13 10:31:51;;;;;;;30.73;17.65;;;9.60;84.70;;;;;;5032509;28;20390;-67
2022/01/13 10:34:29;;;;;;;35.78;16.83;;;9.50;85.00;;;;;;5033108;28;20026;-68
2022/01/13 10:36:58;;;;;;;29.60;19.23;;;9.60;85.20;;;;;;5032727;28;20374;-59
2022/01/13 10:39:43;;;;;;;23.42;17.38;;;9.60;84.70;;;;;;5023048;28;20034;-70
2022/01/13 10:42:44;;;;;;;27.67;19.10;;;9.60;84.80;;;;;;5013263;28;20101;-61
2022/01/13 10:45:01;;;;;;;31.80;18.50;;;9.60;85.10;;;;;;5012607;28;20099;-62
2022/01/13 10:47:28;;;;;;;29.55;18.30;;;9.60;85.40;;;;;;5018075;28;20025;-61
2022/01/13 10:50:09;;;;;;;29.90;18.88;;;9.60;85.90;;;;;;5024931;28;20033;-61
2022/01/13 10:52:35;;;;;;;30.35;19.42;;;9.60;85.70;;;;;;5024604;28;20441;-71
2022/01/13 10:55:12;;;;;;;27.67;18.80;;;9.60;85.40;;;;;;5013078;28;20021;-69
2022/01/13 10:57:41;;;;;;;38.20;20.58;;;9.70;85.70;;;;;;5020427;28;20068;-61
2022/01/13 11:00:23;;;;;;;38.33;21.80;;;9.60;85.90;;;;;;5032437;28;20026;-61
2022/01/13 11:02:58;;;;;;;;;;;9.70;85.90;;;;;;5033387;28;20145;-61
2022/01/13 11:05:25;;;;;;;33.33;19.65;;;9.80;86.40;;;;;;5032137;28;19971;-70
2022/01/13 11:07:50;;;;;;;34.20;20.42;;;9.70;86.20;;;;;;5026078;28;20053;-62
2022/01/13 11:10:16;;;;;;;29.20;19.73;;;9.70;86.20;;;;;;5031643;28;20102;-67
2022/01/13 11:12:44;;;;;;;35.25;19.42;;;9.80;86.00;;;;;;5031507;28;20030;-67
2022/01/13 11:15:15;;;;;;;37.10;21.33;;;9.80;86.40;;;;;;5026969;28;20104;-64
2022/01/13 11:17:44;;;;;;;43.35;22.95;;;9.70;86.70;;;;;;5033892;28;20478;-70
2022/01/13 11:20:15;;;;;;;43.78;22.48;;;9.90;86.20;;;;;;5024777;28;20068;-64
2022/01/13 11:22:43;;;;;;;43.97;22.10;;;9.80;86.30;;;;;;5025708;28;20033;-68
2022/01/13 11:25:12;;;;;;;39.83;22.27;;;9.80;86.80;;;;;;5032667;28;20108;-59
2022/01/13 11:27:39;;;;;;;39.33;22.90;;;9.90;87.10;;;;;;5015074;28;20042;-60
2022/01/13 11:30:09;;;;;;;47.72;22.38;;;9.90;86.70;;;;;;5022405;28;20040;-67
2022/01/13 11:32:35;;;;;;;30.42;18.95;;;10.00;87.40;;;;;;5036252;28;20026;-68
2022/01/13 11:35:02;;;;;;;38.75;21.95;;;10.10;87.50;;;;;;5031997;28;20497;-61
2022/01/13 11:37:29;;;;;;;35.40;18.10;;;10.10;87.30;;;;;;5035637;28;20034;-69
2022/01/13 11:39:56;;;;;;;42.45;23.77;;;10.30;87.80;;;;;;5033534;28;20038;-63
2022/01/13 11:42:22;;;;;;;40.15;22.70;;;10.20;86.30;;;;;;5036080;28;20034;-63
2022/01/13 11:45:16;;;;;;;40.60;23.75;;;10.30;86.00;;;;;;5035832;28;20030;-71
2022/01/13 11:47:42;;;;;;;44.78;24.50;;;10.30;85.60;;;;;;5021249;28;20041;-60
2022/01/13 11:50:21;;;;;;;45.70;24.25;;;10.20;85.90;;;;;;5015170;28;20029;-70
2022/01/13 11:52:53;;;;;;;38.50;24.60;;;10.20;85.70;;;;;;5015304;28;20371;-69
2022/01/13 11:55:18;;;;;;;43.85;24.38;;;10.20;85.50;;;;;;5016099;28;20022;-61
2022/01/13 11:57:44;;;;;;;39.08;24.25;;;10.20;85.40;;;;;;5015726;28;20033;-63
2022/01/13 12:00:29;;;;;;;47.35;25.38;;;10.20;85.30;;;;;;5016087;28;20049;-61
2022/01/13 12:02:56;;;;;;;53.45;26.48;;;10.20;85.40;;;;;;5019248;28;20025;-71
2022/01/13 12:05:24;;;;;;;45.55;26.70;;;10.10;85.90;;;;;;5028020;28;20060;-70
2022/01/13 12:07:53;;;;;;;41.92;24.63;;;10.20;85.60;;;;;;5026925;28;20510;-69
2022/01/13 12:10:24;;;;;;;39.45;24.67;;;10.10;85.50;;;;;;5034953;28;20044;-64
2022/01/13 12:12:51;;;;;;;45.70;26.33;;;10.10;85.50;;;;;;5035443;28;20043;-67
2022/01/13 12:15:25;;;;;;;50.80;26.55;;;10.10;85.80;;;;;;5035455;28;20022;-71
2022/01/13 12:17:54;;;;;;;48.80;26.42;;;10.10;86.10;;;;;;5035531;28;20021;-64
2022/01/13 12:20:27;;;;;;;47.85;27.17;;;10.10;86.00;;;;;;5035439;28;20028;-62
2022/01/13 12:23:14;;;;;;;54.42;27.98;;;10.10;86.10;;;;;;5035673;28;20024;-62
2022/01/13 12:25:40;;;;;;;44.97;27.63;;;10.10;86.10;;;;;;5019081;28;20026;-64
2022/01/13 12:28:18;;;;;;;51.63;26.83;;;10.10;85.90;;;;;;5015652;28;20026;-66
2022/01/13 12:30:45;;;;;;;46.03;26.55;;;10.20;86.00;;;;;;5015422;28;20049;-62
2022/01/13 12:33:11;;;;;;;52.55;27.75;;;10.20;86.00;;;;;;4998042;28;20018;-70
2022/01/13 12:35:37;;;;;;;52.35;26.52;;;10.20;85.90;;;;;;5015095;28;20033;-64
2022/01/13 12:38:05;;;;;;;54.83;29.00;;;10.20;86.80;;;;;;5015324;28;20034;-60
2022/01/13 12:40:41;;;;;;;52.50;30.42;;;10.20;86.00;;;;;;5024571;28;20066;-61
2022/01/13 12:46:22;;;;;;;57.20;27.10;;;10.20;86.30;;;;;;5035184;28;20033;-63
2022/01/13 12:48:53;;;;;;;47.88;28.70;;;10.20;86.40;;;;;;5034434;28;20072;-65
2022/01/13 12:51:25;;;;;;;49.50;28.27;;;10.30;86.20;;;;;;5034983;28;20142;-68
2022/01/13 12:53:52;;;;;;;52.95;28.45;;;10.30;86.40;;;;;;5034579;28;20429;-64
2022/01/13 12:56:29;;;;;;;51.17;25.33;;;10.30;86.50;;;;;;5034573;28;20164;-69
2022/01/13 12:59:00;;;;;;;51.90;28.50;;;10.30;86.50;;;;;;5034521;28;20080;-66
2022/01/13 13:01:31;;;;;;;47.13;27.38;;;10.30;86.50;;;;;;5030379;28;20451;-59
2022/01/13 13:04:09;;;;;;;42.13;25.90;;;10.30;86.60;;;;;;5014930;28;20057;-59
2022/01/13 13:06:38;;;;;;;51.78;26.92;;;10.30;86.50;;;;;;5025948;28;20057;-61
2022/01/13 13:09:07;;;;;;;51.30;27.15;;;10.30;86.40;;;;;;5034649;28;20462;-63
2022/01/13 13:11:35;;;;;;;41.70;25.42;;;10.30;86.70;;;;;;5029901;28;20040;-59
2022/01/13 13:14:01;;;;;;;45.22;27.10;;;10.40;86.80;;;;;;5014827;28;20065;-60
2022/01/13 13:16:27;;;;;;;42.40;26.00;;;10.30;86.80;;;;;;5022403;28;20030;-59
2022/01/13 13:18:52;;;;;;;47.92;28.15;;;10.30;87.00;;;;;;5025339;28;20040;-62
2022/01/13 13:21:18;;;;;;;42.70;25.00;;;10.30;86.80;;;;;;5033927;28;20021;-59